Time;durP1;ratioP1;P1;durP2;ratioP2;P2;SDS_P1;SDS_P2;PMS_P1;PMS_P2;Temp;Humidity;BMP_temperature;BMP_pressure;BME280_temperature;BME280_humidity;BME280_pressure;Samples;Min_cycle;Max_cycle;Signal;HPM_P1;HPM_P2
2023/10/17 00:10:14;;;;;;;;;;;9.20;99.90;;;;;;8408558;28;19983;-70
2023/10/17 00:14:16;;;;;;;;;;;9.10;99.90;;;;;;8418526;28;19932;-70
2023/10/17 00:18:20;;;;;;;;;;;9.10;99.90;;;;;;8404309;28;20326;-70
2023/10/17 00:22:25;;;;;;;;;;;9.10;99.90;;;;;;8413765;28;20452;-70
2023/10/17 00:26:27;;;;;;;;;;;9.10;99.90;;;;;;8427751;28;19970;-70
2023/10/17 00:30:31;;;;;;;;;;;9.10;99.90;;;;;;8420753;28;19924;-70
2023/10/17 00:34:34;;;;;;;;;;;9.10;99.90;;;;;;8402664;28;19924;-70
2023/10/17 00:38:37;;;;;;;;;;;9.00;99.90;;;;;;8422239;28;19928;-70
2023/10/17 01:07:57;;;;;;;;;;;9.00;99.90;;;;;;8420559;28;19927;-70
2023/10/17 01:12:10;;;;;;;;;;;9.00;99.90;;;;;;8407597;28;20408;-70
2023/10/17 01:16:15;;;;;;;;;;;9.00;99.90;;;;;;8406536;28;19924;-70
2023/10/17 01:20:20;;;;;;;;;;;9.00;99.90;;;;;;8402336;28;20633;-70
2023/10/17 01:24:22;;;;;;;;;;;9.00;99.90;;;;;;8422309;28;19932;-70
2023/10/17 01:28:23;;;;;;;;;;;9.00;99.90;;;;;;8399177;28;19931;-70
2023/10/17 01:42:33;;;;;;;;;;;9.00;99.90;;;;;;8411491;28;19946;-70
2023/10/17 01:46:37;;;;;;;;;;;9.00;99.90;;;;;;8406241;28;19924;-70
2023/10/17 01:50:44;;;;;;;;;;;9.00;99.90;;;;;;8410343;28;19924;-70
2023/10/17 01:54:48;;;;;;;;;;;9.00;99.90;;;;;;8424743;28;20430;-70
2023/10/17 01:58:50;;;;;;;;;;;9.00;99.90;;;;;;8409205;28;20379;-70
2023/10/17 02:02:54;;;;;;;;;;;9.00;99.90;;;;;;8420163;28;19989;-70
2023/10/17 02:06:57;;;;;;;;;;;9.00;99.90;;;;;;8424157;28;19935;-70
2023/10/17 02:11:01;;;;;;;;;;;8.90;99.90;;;;;;8393519;28;19924;-70
2023/10/17 02:15:06;;;;;;;;;;;8.90;99.90;;;;;;8423674;28;19932;-70
2023/10/17 02:19:08;;;;;;;;;;;9.00;99.90;;;;;;8403176;28;19928;-70
2023/10/17 02:23:14;;;;;;;;;;;8.90;99.90;;;;;;8404718;28;20276;-70
2023/10/17 02:27:21;;;;;;;;;;;8.90;99.90;;;;;;8422740;28;19924;-70
2023/10/17 02:31:32;;;;;;;;;;;8.90;99.90;;;;;;8414734;28;19925;-70
2023/10/17 02:35:43;;;;;;;;;;;8.90;99.90;;;;;;8404935;28;20373;-70
2023/10/17 02:39:45;;;;;;;;;;;8.90;99.90;;;;;;8417994;28;19977;-70
2023/10/17 02:43:47;;;;;;;;;;;8.90;99.90;;;;;;8404757;28;19977;-70
2023/10/17 02:47:49;;;;;;;;;;;8.90;99.90;;;;;;8402790;28;19955;-70
2023/10/17 02:51:53;;;;;;;;;;;8.90;99.90;;;;;;8415093;28;20011;-70
2023/10/17 02:55:56;;;;;;;;;;;8.90;99.90;;;;;;8411944;28;19940;-70
2023/10/17 03:00:08;;;;;;;;;;;8.90;99.90;;;;;;8422624;28;19924;-70
2023/10/17 03:04:13;;;;;;;;;;;8.90;99.90;;;;;;8412106;28;20393;-69
2023/10/17 03:08:18;;;;;;;;;;;8.90;99.90;;;;;;8395246;28;19928;-70
2023/10/17 03:12:29;;;;;;;;;;;8.90;99.90;;;;;;8415414;28;19938;-70
2023/10/17 03:16:39;;;;;;;;;;;8.90;99.90;;;;;;8409881;28;19932;-70
2023/10/17 03:20:41;;;;;;;;;;;8.90;99.90;;;;;;8413251;28;19975;-70
2023/10/17 03:24:44;;;;;;;;;;;8.90;99.90;;;;;;8395676;28;20291;-70
2023/10/17 03:28:46;;;;;;;;;;;8.90;99.90;;;;;;8391531;28;20015;-70
2023/10/17 03:37:26;;;;;;;;;;;8.80;99.90;;;;;;8411265;28;19974;-70
2023/10/17 03:41:24;;;;;;;;;;;8.80;99.90;;;;;;8423277;28;19931;-70
2023/10/17 03:45:34;;;;;;;;;;;8.80;99.90;;;;;;8413810;28;19970;-70
2023/10/17 03:49:39;;;;;;;;;;;8.90;99.90;;;;;;8410180;28;20007;-70
2023/10/17 03:53:46;;;;;;;;;;;8.90;99.90;;;;;;8423323;28;19924;-70
2023/10/17 03:57:52;;;;;;;;;;;8.90;99.90;;;;;;8389651;28;19925;-70
2023/10/17 04:01:54;;;;;;;;;;;8.90;99.90;;;;;;8418245;28;19924;-70
2023/10/17 04:14:20;;;;;;;;;;;8.80;99.90;;;;;;8415131;28;20271;-70
2023/10/17 04:18:22;;;;;;;;;;;8.80;99.90;;;;;;8399482;28;19928;-70
2023/10/17 04:22:29;;;;;;;;;;;8.80;99.90;;;;;;8423195;28;20181;-70
2023/10/17 04:26:34;;;;;;;;;;;8.80;99.90;;;;;;8412123;28;20262;-70
2023/10/17 04:30:46;;;;;;;;;;;8.80;99.90;;;;;;8420589;28;20453;-70
2023/10/17 04:34:48;;;;;;;;;;;8.80;99.90;;;;;;8414094;28;20303;-70
2023/10/17 04:39:11;;;;;;;;;;;8.80;99.90;;;;;;8419872;28;19924;-70
2023/10/17 04:47:43;;;;;;;;;;;8.80;99.90;;;;;;8393048;28;19924;-70
2023/10/17 04:51:44;;;;;;;;;;;8.80;99.90;;;;;;8416848;28;19924;-70
2023/10/17 06:28:46;;;;;;;;;;;8.40;99.90;;;;;;8414258;28;19982;-70
2023/10/17 06:33:16;;;;;;;;;;;8.30;99.90;;;;;;8414835;28;21905;-70
2023/10/17 06:37:29;;;;;;;;;;;8.30;99.90;;;;;;8431314;28;19925;-70
2023/10/17 06:41:38;;;;;;;;;;;8.30;99.90;;;;;;8403425;28;19924;-70
2023/10/17 06:45:52;;;;;;;;;;;8.30;99.90;;;;;;8407404;28;19924;-70
2023/10/17 06:54:08;;;;;;;;;;;8.30;99.90;;;;;;8409975;28;19924;-70
2023/10/17 06:58:10;;;;;;;;;;;8.30;99.90;;;;;;8403488;28;19928;-70
2023/10/17 07:02:18;;;;;;;;;;;8.30;99.90;;;;;;8421041;28;19924;-70
2023/10/17 07:06:24;;;;;;;;;;;8.30;99.90;;;;;;8411271;28;20027;-69
2023/10/17 07:14:30;;;;;;;;;;;8.40;99.90;;;;;;8403057;28;19932;-70
2023/10/17 07:38:15;;;;;;;;;;;8.80;99.90;;;;;;8422497;28;19928;-70
2023/10/17 07:42:29;;;;;;;;;;;8.90;99.90;;;;;;8421416;28;19924;-70
2023/10/17 07:46:34;;;;;;;;;;;9.00;99.90;;;;;;8426043;28;19924;-70
2023/10/17 07:50:38;;;;;;;;;;;9.10;99.90;;;;;;8422676;28;19924;-70
2023/10/17 07:54:55;;;;;;;;;;;9.20;99.90;;;;;;8403621;28;19932;-70
2023/10/17 07:58:56;;;;;;;;;;;9.40;99.90;;;;;;8421947;28;19936;-70
2023/10/17 08:03:07;;;;;;;;;;;9.50;99.90;;;;;;8419166;28;19928;-70
2023/10/17 08:07:13;;;;;;;;;;;9.60;99.90;;;;;;8426693;28;20581;-70
2023/10/17 08:11:27;;;;;;;;;;;9.70;99.90;;;;;;8394813;28;19967;-70
2023/10/17 08:15:38;;;;;;;;;;;9.90;99.90;;;;;;8406456;28;19924;-70
2023/10/17 08:30:17;;;;;;;;;;;10.30;99.90;;;;;;8410314;28;19986;-70
2023/10/17 08:34:41;;;;;;;;;;;10.50;99.90;;;;;;8427403;28;20339;-70
2023/10/17 08:38:43;;;;;;;;;;;10.70;99.90;;;;;;8394917;28;19924;-69
2023/10/17 08:42:49;;;;;;;;;;;10.90;99.90;;;;;;8410096;28;19928;-69
2023/10/17 08:46:53;;;;;;;;;;;11.00;99.90;;;;;;8414859;28;19971;-69
2023/10/17 08:50:55;;;;;;;;;;;11.10;99.90;;;;;;8411728;28;19924;-70
2023/10/17 08:54:57;;;;;;;;;;;11.20;99.90;;;;;;8427494;28;20027;-70
2023/10/17 08:59:03;;;;;;;;;;;11.40;99.90;;;;;;8417182;28;20368;-70
2023/10/17 09:03:09;;;;;;;;;;;11.50;99.90;;;;;;8422460;28;19930;-70
2023/10/17 09:07:19;;;;;;;;;;;11.70;99.90;;;;;;8422941;28;20548;-70
2023/10/17 09:11:41;;;;;;;;;;;11.80;99.90;;;;;;8402749;28;21487;-70
2023/10/17 09:15:57;;;;;;;;;;;12.00;99.90;;;;;;8417409;28;19927;-69
2023/10/17 09:20:11;;;;;;;;;;;12.20;99.90;;;;;;8386258;28;19963;-70
2023/10/17 09:24:29;;;;;;;;;;;12.40;99.90;;;;;;8386603;28;19935;-70
2023/10/17 09:28:32;;;;;;;;;;;12.60;99.90;;;;;;8384820;28;19932;-69
2023/10/17 09:32:37;;;;;;;;;;;12.80;99.90;;;;;;8385951;28;20268;-69
2023/10/17 09:36:42;;;;;;;;;;;12.90;99.90;;;;;;8387005;28;19925;-69
2023/10/17 09:40:46;;;;;;;;;;;12.90;99.90;;;;;;8367166;28;19940;-70
2023/10/17 09:44:50;;;;;;;;;;;12.90;99.90;;;;;;8399140;28;19924;-69
2023/10/17 09:48:52;;;;;;;;;;;12.90;99.90;;;;;;8385790;28;19933;-70
2023/10/17 09:52:56;;;;;;;;;;;12.90;99.90;;;;;;8383817;28;19991;-69
2023/10/17 09:56:58;;;;;;;;;;;12.80;99.90;;;;;;8389546;28;19936;-69
2023/10/17 10:01:06;;;;;;;;;;;12.80;99.90;;;;;;8383690;28;19925;-70
2023/10/17 10:05:21;;;;;;;;;;;12.80;99.90;;;;;;8390451;28;19925;-69
2023/10/17 10:09:28;;;;;;;;;;;13.00;99.90;;;;;;8387953;28;19925;-69
2023/10/17 10:13:32;;;;;;;;;;;13.20;99.90;;;;;;8382138;28;20178;-69
2023/10/17 10:17:44;;;;;;;;;;;13.50;99.90;;;;;;8388066;28;20261;-69
2023/10/17 10:21:57;;;;;;;;;;;13.90;99.90;;;;;;8384708;28;19947;-68
2023/10/17 10:26:10;;;;;;;;;;;14.20;99.90;;;;;;8388272;28;19935;-69
2023/10/17 10:30:31;;;;;;;;;;;14.70;99.90;;;;;;8391814;28;19985;-69
2023/10/17 10:34:35;;;;;;;;;;;15.10;99.90;;;;;;8376096;28;20039;-69
2023/10/17 10:38:38;;;;;;;;;;;15.60;99.90;;;;;;8371050;28;20360;-68
2023/10/17 10:42:47;;;;;;;;;;;16.00;99.90;;;;;;8384338;28;20375;-70
2023/10/17 10:46:50;;;;;;;;;;;16.10;99.90;;;;;;8382825;28;19928;-69
2023/10/17 10:50:55;;;;;;;;;;;16.20;99.90;;;;;;8364351;28;20004;-70
2023/10/17 10:54:59;;;;;;;;;;;16.30;99.90;;;;;;8365980;28;19924;-69
2023/10/17 10:59:02;;;;;;;;;;;16.50;99.90;;;;;;8387496;28;19924;-69
2023/10/17 11:03:05;;;;;;;;;;;16.70;99.90;;;;;;8381925;28;19939;-69
2023/10/17 11:07:22;;;;;;;;;;;16.90;99.90;;;;;;8383706;28;20338;-69
2023/10/17 11:11:24;;;;;;;;;;;17.00;99.90;;;;;;8384060;28;19924;-70
2023/10/17 11:15:30;;;;;;;;;;;17.20;99.90;;;;;;8398030;28;19924;-69
2023/10/17 11:19:31;;;;;;;;;;;17.10;99.90;;;;;;8386402;28;19932;-69
2023/10/17 11:23:35;;;;;;;;;;;17.10;99.90;;;;;;8383226;28;19933;-69
2023/10/17 11:27:39;;;;;;;;;;;17.00;99.90;;;;;;8385308;28;19936;-69
2023/10/17 11:31:41;;;;;;;;;;;17.00;99.90;;;;;;8382566;28;19930;-70
2023/10/17 11:35:50;;;;;;;;;;;17.00;99.90;;;;;;8388461;28;20436;-69
2023/10/17 11:39:51;;;;;;;;;;;17.00;99.90;;;;;;8389220;28;19928;-70
2023/10/17 11:43:54;;;;;;;;;;;17.00;99.90;;;;;;8385990;28;19932;-69
2023/10/17 11:47:57;;;;;;;;;;;17.00;99.90;;;;;;8391493;28;20063;-69
2023/10/17 11:52:17;;;;;;;;;;;17.00;99.90;;;;;;8389787;28;19946;-69
2023/10/17 11:56:20;;;;;;;;;;;16.80;99.90;;;;;;8388386;28;19932;-69
2023/10/17 12:00:27;;;;;;;;;;;16.60;99.90;;;;;;8372101;28;19998;-69
2023/10/17 12:04:28;;;;;;;;;;;16.40;99.90;;;;;;8392660;28;19974;-69
2023/10/17 12:08:30;;;;;;;;;;;16.20;99.90;;;;;;8405688;28;19931;-68
2023/10/17 12:12:33;;;;;;;;;;;16.00;99.90;;;;;;8388175;28;19935;-69
2023/10/17 12:16:35;;;;;;;;;;;15.80;99.90;;;;;;8387433;28;20381;-69
2023/10/17 12:20:42;;;;;;;;;;;15.70;99.90;;;;;;8388346;28;20415;-69
2023/10/17 12:24:46;;;;;;;;;;;15.60;99.90;;;;;;8388952;28;19929;-69
2023/10/17 12:28:49;;;;;;;;;;;15.60;99.90;;;;;;8388462;28;19924;-68
2023/10/17 12:32:51;;;;;;;;;;;15.50;99.90;;;;;;8386801;28;20363;-69
2023/10/17 12:36:56;;;;;;;;;;;15.50;99.90;;;;;;8389055;28;20122;-69
2023/10/17 12:40:58;;;;;;;;;;;15.50;99.90;;;;;;8387904;28;19982;-68
2023/10/17 12:45:00;;;;;;;;;;;15.50;99.90;;;;;;8371107;28;20015;-69
2023/10/17 12:49:02;;;;;;;;;;;15.40;99.90;;;;;;8385706;28;20031;-68
2023/10/17 12:53:05;;;;;;;;;;;15.50;99.90;;;;;;8388888;28;19928;-69
2023/10/17 12:57:08;;;;;;;;;;;15.40;99.90;;;;;;8405512;28;19928;-69
2023/10/17 13:01:12;;;;;;;;;;;15.50;99.90;;;;;;8372156;28;19925;-69
2023/10/17 13:05:14;;;;;;;;;;;15.40;99.90;;;;;;8370090;28;20425;-69
2023/10/17 13:09:16;;;;;;;;;;;15.50;99.90;;;;;;8388334;28;19938;-68
2023/10/17 13:18:30;;;;;;;;;;;15.50;99.90;;;;;;8387647;28;20007;-69
2023/10/17 13:22:36;;;;;;;;;;;15.50;99.90;;;;;;8386298;28;20394;-68
2023/10/17 13:26:38;;;;;;;;;;;15.50;99.90;;;;;;8384795;28;19929;-69
2023/10/17 13:30:40;;;;;;;;;;;15.50;99.90;;;;;;8383908;28;19977;-69
2023/10/17 13:34:42;;;;;;;;;;;15.40;99.90;;;;;;8390912;28;19944;-69
2023/10/17 13:38:44;;;;;;;;;;;15.40;99.90;;;;;;8402932;28;19986;-69
2023/10/17 13:42:46;;;;;;;;;;;15.40;99.90;;;;;;8389807;28;19951;-69
2023/10/17 13:46:48;;;;;;;;;;;15.40;99.90;;;;;;8386013;28;20022;-69
2023/10/17 13:50:50;;;;;;;;;;;15.40;99.90;;;;;;8387214;28;19925;-68
2023/10/17 13:54:52;;;;;;;;;;;15.30;99.90;;;;;;8394989;28;19966;-68
2023/10/17 13:58:55;;;;;;;;;;;15.30;99.90;;;;;;8385436;28;19974;-69
2023/10/17 14:02:57;;;;;;;;;;;15.30;99.90;;;;;;8386785;28;20249;-69
2023/10/17 14:06:59;;;;;;;;;;;15.30;99.90;;;;;;8369492;28;20344;-69
2023/10/17 14:11:06;;;;;;;;;;;15.50;99.90;;;;;;8400913;28;20380;-69
2023/10/17 14:15:08;;;;;;;;;;;15.70;99.90;;;;;;8382101;28;19936;-69
2023/10/17 14:23:32;;;;;;;;;;;16.10;99.90;;;;;;8351798;28;20376;-69
2023/10/17 14:27:36;;;;;;;;;;;16.10;99.90;;;;;;8353478;28;19928;-69
2023/10/17 14:31:38;;;;;;;;;;;16.20;99.90;;;;;;8348876;28;19925;-69
2023/10/17 14:35:43;;;;;;;;;;;16.10;99.90;;;;;;8352243;28;19963;-69
2023/10/17 14:39:45;;;;;;;;;;;16.10;99.90;;;;;;8352822;28;20303;-69
2023/10/17 14:43:49;;;;;;;;;;;16.00;99.90;;;;;;8368407;28;19932;-69
2023/10/17 14:47:51;;;;;;;;;;;15.90;99.90;;;;;;8349892;28;19925;-68
2023/10/17 14:51:53;;;;;;;;;;;15.70;99.90;;;;;;8384916;28;20058;-69
2023/10/17 14:55:57;;;;;;;;;;;15.60;99.90;;;;;;8351473;28;19925;-69
2023/10/17 14:59:58;;;;;;;;;;;15.40;99.90;;;;;;8364392;28;19998;-69
2023/10/17 15:04:00;;;;;;;;;;;15.40;99.90;;;;;;8352577;28;19929;-69
2023/10/17 15:08:03;;;;;;;;;;;15.30;99.90;;;;;;8352868;28;20406;-69
2023/10/17 15:12:05;;;;;;;;;;;15.20;99.90;;;;;;8357547;28;19925;-69
2023/10/17 15:16:16;;;;;;;;;;;15.20;99.90;;;;;;8387056;28;19947;-69
2023/10/17 15:20:18;;;;;;;;;;;15.30;99.90;;;;;;8397439;28;19929;-69
2023/10/17 15:24:19;;;;;;;;;;;15.20;99.90;;;;;;8396311;28;20288;-69
2023/10/17 15:28:21;;;;;;;;;;;15.20;99.90;;;;;;8386774;28;19929;-69
2023/10/17 15:32:23;;;;;;;;;;;15.20;99.90;;;;;;8387316;28;19970;-69
2023/10/17 15:36:25;;;;;;;;;;;15.30;99.90;;;;;;8407877;28;20389;-69
2023/10/17 15:40:29;;;;;;;;;;;15.30;99.90;;;;;;8384557;28;19938;-68
2023/10/17 15:44:34;;;;;;;;;;;15.40;99.90;;;;;;8388213;28;20288;-69
2023/10/17 15:48:36;;;;;;;;;;;15.30;99.90;;;;;;8390552;28;20398;-69
2023/10/17 15:52:38;;;;;;;;;;;15.20;99.90;;;;;;8392010;28;20043;-69
2023/10/17 15:56:40;;;;;;;;;;;15.00;99.90;;;;;;8386164;28;20517;-68
2023/10/17 16:00:42;;;;;;;;;;;14.80;99.90;;;;;;8400341;28;19929;-69
2023/10/17 16:04:44;;;;;;;;;;;14.70;99.90;;;;;;8392204;28;20032;-69
2023/10/17 16:08:48;;;;;;;;;;;14.50;99.90;;;;;;8389485;28;20408;-69
2023/10/17 16:12:50;;;;;;;;;;;14.30;99.90;;;;;;8372647;28;20283;-69
2023/10/17 16:16:51;;;;;;;;;;;14.20;99.90;;;;;;8398203;28;19975;-68
2023/10/17 16:20:53;;;;;;;;;;;14.10;99.90;;;;;;8381804;28;19928;-69
2023/10/17 16:24:55;;;;;;;;;;;14.00;99.90;;;;;;8377602;28;19994;-69
2023/10/17 16:28:57;;;;;;;;;;;13.90;99.90;;;;;;8387331;28;19924;-69
2023/10/17 16:32:59;;;;;;;;;;;13.70;99.90;;;;;;8404850;28;19932;-69
2023/10/17 16:37:01;;;;;;;;;;;13.60;99.90;;;;;;8384529;28;19924;-69
2023/10/17 16:41:03;;;;;;;;;;;13.60;99.90;;;;;;8390032;28;20002;-69
2023/10/17 16:45:05;;;;;;;;;;;13.50;99.90;;;;;;8384344;28;20027;-69
2023/10/17 16:49:07;;;;;;;;;;;13.40;99.90;;;;;;8388924;28;19928;-69
2023/10/17 16:53:09;;;;;;;;;;;13.20;99.90;;;;;;8388200;28;19932;-69
2023/10/17 16:57:11;;;;;;;;;;;13.10;99.90;;;;;;8385246;28;19932;-69
2023/10/17 17:01:14;;;;;;;;;;;13.00;99.90;;;;;;8389218;28;19936;-69
2023/10/17 17:05:16;;;;;;;;;;;13.00;99.90;;;;;;8364828;28;20383;-69
2023/10/17 17:09:20;;;;;;;;;;;12.90;99.90;;;;;;8386097;28;20372;-69
2023/10/17 17:13:22;;;;;;;;;;;12.80;99.90;;;;;;8370487;28;20434;-69
2023/10/17 17:17:24;;;;;;;;;;;12.70;99.90;;;;;;8386541;28;20007;-69
2023/10/17 17:21:26;;;;;;;;;;;12.60;99.90;;;;;;8387788;28;20441;-69
2023/10/17 17:25:28;;;;;;;;;;;12.60;99.90;;;;;;8386560;28;19924;-69
2023/10/17 17:29:30;;;;;;;;;;;12.50;99.90;;;;;;8392470;28;19924;-69
2023/10/17 17:33:32;;;;;;;;;;;12.50;99.90;;;;;;8386185;28;19935;-69
2023/10/17 17:37:34;;;;;;;;;;;12.50;99.90;;;;;;8402795;28;19924;-69
2023/10/17 17:41:37;;;;;;;;;;;12.40;99.90;;;;;;8384951;28;19924;-69
2023/10/17 17:55:39;;;;;;;;;;;12.30;99.90;;;;;;8387848;28;19938;-69
2023/10/17 17:59:41;;;;;;;;;;;12.20;99.90;;;;;;8388970;28;20299;-69
2023/10/17 18:03:42;;;;;;;;;;;12.20;99.90;;;;;;8383237;28;20190;-69
2023/10/17 18:07:44;;;;;;;;;;;12.10;99.90;;;;;;8388260;28;19942;-69
2023/10/17 18:11:46;;;;;;;;;;;12.10;99.90;;;;;;8384458;28;19982;-69
2023/10/17 18:15:51;;;;;;;;;;;12.00;99.90;;;;;;8382879;28;19928;-69
2023/10/17 18:19:55;;;;;;;;;;;11.90;99.90;;;;;;8385244;28;20334;-69
2023/10/17 18:23:57;;;;;;;;;;;11.80;99.90;;;;;;8401144;28;19960;-69
2023/10/17 18:27:59;;;;;;;;;;;11.70;99.90;;;;;;8384029;28;19928;-69
2023/10/17 18:32:01;;;;;;;;;;;11.60;99.90;;;;;;8381686;28;19929;-69
2023/10/17 18:36:03;;;;;;;;;;;11.60;99.90;;;;;;8388488;28;21012;-68
2023/10/17 18:40:10;;;;;;;;;;;11.50;99.90;;;;;;8390091;28;19955;-69
2023/10/17 18:44:14;;;;;;;;;;;11.50;99.90;;;;;;8391978;28;20065;-69
2023/10/17 18:48:15;;;;;;;;;;;11.40;99.90;;;;;;8377759;28;20466;-69
2023/10/17 18:52:17;;;;;;;;;;;11.40;99.90;;;;;;8396063;28;19925;-68
2023/10/17 18:56:19;;;;;;;;;;;11.30;99.90;;;;;;8400936;28;20059;-69
2023/10/17 19:00:22;;;;;;;;;;;11.30;99.90;;;;;;8391036;28;20287;-69
2023/10/17 19:04:24;;;;;;;;;;;11.20;99.90;;;;;;8390072;28;19976;-69
2023/10/17 19:08:26;;;;;;;;;;;11.20;99.90;;;;;;8397346;28;19925;-69
2023/10/17 19:12:27;;;;;;;;;;;11.10;99.90;;;;;;8401267;28;19928;-68
2023/10/17 19:16:42;;;;;;;;;;;11.10;99.90;;;;;;8394598;28;19981;-68
2023/10/17 19:20:44;;;;;;;;;;;11.00;99.90;;;;;;8394619;28;19925;-69
2023/10/17 19:24:46;;;;;;;;;;;11.00;99.90;;;;;;8395914;28;19974;-69
2023/10/17 19:28:47;;;;;;;;;;;10.90;99.90;;;;;;8396849;28;19928;-69
2023/10/17 19:32:50;;;;;;;;;;;10.90;99.90;;;;;;8413283;28;19924;-69
2023/10/17 19:36:52;;;;;;;;;;;10.80;99.90;;;;;;8380283;28;20349;-68
2023/10/17 19:40:57;;;;;;;;;;;10.80;99.90;;;;;;8413451;28;19924;-68
2023/10/17 19:44:58;;;;;;;;;;;10.70;99.90;;;;;;8400770;28;19924;-69
2023/10/17 19:49:00;;;;;;;;;;;10.60;99.90;;;;;;8411578;28;19925;-68
2023/10/17 19:53:01;;;;;;;;;;;10.60;99.90;;;;;;8398720;28;20291;-69
2023/10/17 19:57:03;;;;;;;;;;;10.50;99.90;;;;;;8394347;28;20310;-69
2023/10/17 20:01:05;;;;;;;;;;;10.50;99.90;;;;;;8393815;28;19962;-69
2023/10/17 20:05:08;;;;;;;;;;;10.50;99.90;;;;;;8391664;28;19924;-69
2023/10/17 20:09:10;;;;;;;;;;;10.50;99.90;;;;;;8392460;28;19936;-69
2023/10/17 20:13:12;;;;;;;;;;;10.50;99.90;;;;;;8389728;28;19928;-69
2023/10/17 20:17:14;;;;;;;;;;;10.40;99.90;;;;;;8407782;28;19977;-69
2023/10/17 20:21:18;;;;;;;;;;;10.40;99.90;;;;;;8390875;28;19928;-69
2023/10/17 20:25:21;;;;;;;;;;;10.40;99.90;;;;;;8376299;28;19924;-69
2023/10/17 20:29:23;;;;;;;;;;;10.30;99.90;;;;;;8395747;28;20437;-69
2023/10/17 20:33:25;;;;;;;;;;;10.30;99.90;;;;;;8387598;28;19960;-68
2023/10/17 20:37:26;;;;;;;;;;;10.30;99.90;;;;;;8376820;28;19967;-69
2023/10/17 20:41:28;;;;;;;;;;;10.30;99.90;;;;;;8393209;28;19939;-69
2023/10/17 20:55:37;;;;;;;;;;;10.10;99.90;;;;;;8389464;28;20001;-69
2023/10/17 20:59:39;;;;;;;;;;;10.10;99.90;;;;;;8387336;28;20406;-69
2023/10/17 21:03:41;;;;;;;;;;;10.10;99.90;;;;;;8410561;28;19924;-69
2023/10/17 21:07:42;;;;;;;;;;;10.10;99.90;;;;;;8420205;28;19924;-69
2023/10/17 21:11:44;;;;;;;;;;;10.00;99.90;;;;;;8409398;28;20614;-69
2023/10/17 21:20:55;;;;;;;;;;;10.00;99.90;;;;;;8387608;28;19970;-69
2023/10/17 21:24:57;;;;;;;;;;;9.90;99.90;;;;;;8414115;28;20401;-68
2023/10/17 21:29:00;;;;;;;;;;;9.80;99.90;;;;;;8408846;28;20440;-69
2023/10/17 21:33:03;;;;;;;;;;;9.80;99.90;;;;;;8417380;28;20004;-69
2023/10/17 21:37:04;;;;;;;;;;;9.80;99.90;;;;;;8421311;28;19985;-69
2023/10/17 21:41:07;;;;;;;;;;;9.80;99.90;;;;;;8428060;28;19924;-69
2023/10/17 21:45:11;;;;;;;;;;;9.80;99.90;;;;;;8411224;28;19939;-69
2023/10/17 21:49:12;;;;;;;;;;;9.80;99.90;;;;;;8407408;28;19965;-69
2023/10/17 21:53:14;;;;;;;;;;;9.70;99.90;;;;;;8426421;28;19979;-69
2023/10/17 21:57:16;;;;;;;;;;;9.70;99.90;;;;;;8416558;28;19931;-69
2023/10/17 22:01:18;;;;;;;;;;;9.70;99.90;;;;;;8420056;28;19931;-69
2023/10/17 22:05:20;;;;;;;;;;;9.70;99.90;;;;;;8397915;28;20441;-69
2023/10/17 22:09:22;;;;;;;;;;;9.60;99.90;;;;;;8393028;28;19928;-69
2023/10/17 22:28:46;;;;;;;;;;;9.50;99.90;;;;;;8406446;28;19927;-69
2023/10/17 22:32:48;;;;;;;;;;;9.40;99.90;;;;;;8426539;28;19953;-69
2023/10/17 22:36:50;;;;;;;;;;;9.40;99.90;;;;;;8418047;28;19924;-68
2023/10/17 22:40:51;;;;;;;;;;;9.40;99.90;;;;;;8421022;28;19928;-69
2023/10/17 22:44:56;;;;;;;;;;;9.40;99.90;;;;;;8426848;28;20291;-68
2023/10/17 22:48:58;;;;;;;;;;;9.30;99.90;;;;;;8394504;28;19924;-69
2023/10/17 22:52:59;;;;;;;;;;;9.30;99.90;;;;;;8417557;28;20019;-69
2023/10/17 22:57:01;;;;;;;;;;;9.30;99.90;;;;;;8398425;28;19931;-69
2023/10/17 23:01:04;;;;;;;;;;;9.30;99.90;;;;;;8418999;28;19937;-69
2023/10/17 23:05:06;;;;;;;;;;;9.30;99.90;;;;;;8415733;28;19938;-69
2023/10/17 23:09:08;;;;;;;;;;;9.30;99.90;;;;;;8418211;28;19932;-69
2023/10/17 23:13:10;;;;;;;;;;;9.20;99.90;;;;;;8411544;28;19931;-69
2023/10/17 23:17:13;;;;;;;;;;;9.20;99.90;;;;;;8403441;28;19924;-69
2023/10/17 23:21:14;;;;;;;;;;;9.10;99.90;;;;;;8426792;28;19924;-69
2023/10/17 23:25:16;;;;;;;;;;;9.10;99.90;;;;;;8404934;28;19924;-69
2023/10/17 23:29:18;;;;;;;;;;;9.10;99.90;;;;;;8414800;28;19924;-69
2023/10/17 23:33:20;;;;;;;;;;;9.00;99.90;;;;;;8429433;28;20360;-69
2023/10/17 23:37:22;;;;;;;;;;;9.00;99.90;;;;;;8422480;28;19928;-69
2023/10/17 23:41:24;;;;;;;;;;;9.00;99.90;;;;;;8425995;28;19924;-69
2023/10/17 23:45:26;;;;;;;;;;;9.00;99.90;;;;;;8422055;28;20306;-69
2023/10/17 23:49:28;;;;;;;;;;;8.90;99.90;;;;;;8429896;28;19993;-69
2023/10/17 23:53:32;;;;;;;;;;;8.90;99.90;;;;;;8428719;28;19928;-69
2023/10/17 23:57:35;;;;;;;;;;;8.90;99.90;;;;;;8422145;28;20299;-69
